Time;durP1;ratioP1;P1;durP2;ratioP2;P2;SDS_P1;SDS_P2;PMS_P1;PMS_P2;Temp;Humidity;BMP_temperature;BMP_pressure;BME280_temperature;BME280_humidity;BME280_pressure;Samples;Min_cycle;Max_cycle;Signal;HPM_P1;HPM_P2
2024/02/18 00:01:26;;;;;;;;;;;;;;;3.74;100.00;95823.84;10515715;28;19957;-85
2024/02/18 00:06:30;;;;;;;;;;;;;;;3.78;100.00;95816.31;10515406;28;20401;-86
2024/02/18 00:11:33;;;;;;;;;;;;;;;3.74;100.00;95821.19;10500869;28;19912;-84
2024/02/18 00:16:33;;;;;;;;;;;;;;;3.64;100.00;95812.81;10519756;28;19927;-87
2024/02/18 00:21:34;;;;;;;;;;;;;;;3.51;100.00;95809.09;10503382;28;20326;-85
2024/02/18 00:26:36;;;;;;;;;;;;;;;3.33;100.00;95811.53;10484218;28;19991;-86
2024/02/18 00:31:37;;;;;;;;;;;;;;;3.19;100.00;95813.34;10517375;28;20338;-85
2024/02/18 00:36:37;;;;;;;;;;;;;;;3.24;100.00;95808.25;10518000;28;19916;-85
2024/02/18 00:41:37;;;;;;;;;;;;;;;3.30;100.00;95811.94;10516432;28;19912;-84
2024/02/18 00:46:38;;;;;;;;;;;;;;;3.35;100.00;95812.13;10516650;28;20373;-85
2024/02/18 00:51:39;;;;;;;;;;;;;;;3.32;100.00;95816.03;10517524;28;19928;-85
2024/02/18 00:56:39;;;;;;;;;;;;;;;3.28;100.00;95808.66;10517054;28;19920;-85
2024/02/18 01:01:39;;;;;;;;;;;;;;;3.28;100.00;95806.00;10498075;28;19939;-86
2024/02/18 01:06:39;;;;;;;;;;;;;;;3.19;100.00;95806.16;10503325;28;19959;-84
2024/02/18 01:11:40;;;;;;;;;;;;;;;3.08;100.00;95807.59;10525188;28;20294;-86
2024/02/18 01:16:40;;;;;;;;;;;;;;;3.04;100.00;95805.50;10521783;28;19916;-86
2024/02/18 01:21:40;;;;;;;;;;;;;;;2.91;100.00;95807.09;10522403;28;19912;-86
2024/02/18 01:26:41;;;;;;;;;;;;;;;3.01;100.00;95803.25;10515651;28;19913;-86
2024/02/18 01:31:42;;;;;;;;;;;;;;;3.05;100.00;95800.00;10516679;28;19920;-86
2024/02/18 01:36:43;;;;;;;;;;;;;;;3.05;100.00;95785.91;10503771;28;19966;-86
2024/02/18 01:41:43;;;;;;;;;;;;;;;2.99;100.00;95789.38;10486726;28;19997;-86
2024/02/18 01:46:47;;;;;;;;;;;;;;;2.67;100.00;95794.34;10503503;28;20333;-86
2024/02/18 01:51:48;;;;;;;;;;;;;;;2.75;100.00;95799.50;10519279;28;19924;-87
2024/02/18 01:56:49;;;;;;;;;;;;;;;2.56;100.00;95801.84;10524038;28;20241;-86
2024/02/18 02:01:49;;;;;;;;;;;;;;;2.44;100.00;95802.59;10502574;28;19965;-84
2024/02/18 02:06:50;;;;;;;;;;;;;;;2.52;100.00;95811.19;10504604;28;20414;-86
2024/02/18 02:11:50;;;;;;;;;;;;;;;2.58;100.00;95816.75;10501371;28;19955;-85
2024/02/18 02:16:52;;;;;;;;;;;;;;;2.51;100.00;95806.09;10518718;28;20530;-86
2024/02/18 02:21:53;;;;;;;;;;;;;;;2.48;100.00;95817.09;10519702;28;19985;-85
2024/02/18 02:26:54;;;;;;;;;;;;;;;2.49;100.00;95814.25;10505641;28;20518;-87
2024/02/18 02:32:01;;;;;;;;;;;;;;;2.45;100.00;95826.25;10502123;28;20286;-86
2024/02/18 02:37:01;;;;;;;;;;;;;;;2.27;100.00;95836.56;10503939;28;19916;-83
2024/02/18 02:42:01;;;;;;;;;;;;;;;2.20;100.00;95833.84;10522758;28;19912;-87
2024/02/18 02:47:03;;;;;;;;;;;;;;;2.07;100.00;95850.50;10522930;28;19916;-84
2024/02/18 02:52:04;;;;;;;;;;;;;;;2.10;100.00;95842.16;10490484;28;19924;-86
2024/02/18 02:57:12;;;;;;;;;;;;;;;2.09;100.00;95837.03;10506972;28;20725;-87
2024/02/18 03:02:12;;;;;;;;;;;;;;;2.14;100.00;95830.16;10510043;28;19959;-87
2024/02/18 03:07:13;;;;;;;;;;;;;;;2.09;100.00;95843.16;10500600;28;19943;-87
2024/02/18 03:12:16;;;;;;;;;;;;;;;2.16;100.00;95840.56;10506697;28;20345;-87
2024/02/18 03:17:16;;;;;;;;;;;;;;;2.12;100.00;95840.13;10508454;28;19923;-86
2024/02/18 03:22:20;;;;;;;;;;;;;;;2.13;100.00;95848.91;10521983;28;19916;-86
2024/02/18 03:27:20;;;;;;;;;;;;;;;2.08;100.00;95846.00;10520323;28;19935;-87
2024/02/18 03:32:21;;;;;;;;;;;;;;;1.99;100.00;95848.78;10488155;28;19919;-86
2024/02/18 03:37:21;;;;;;;;;;;;;;;2.03;100.00;95855.34;10493851;28;19928;-84
2024/02/18 03:42:22;;;;;;;;;;;;;;;2.01;100.00;95862.69;10510660;28;19916;-86
2024/02/18 03:47:23;;;;;;;;;;;;;;;1.88;100.00;95868.72;10524694;28;20006;-86
2024/02/18 03:52:23;;;;;;;;;;;;;;;1.92;100.00;95865.66;10518288;28;20651;-85
2024/02/18 03:57:23;;;;;;;;;;;;;;;1.72;100.00;95858.34;10518167;28;20010;-85
2024/02/18 04:02:24;;;;;;;;;;;;;;;1.74;100.00;95860.81;10502121;28;20366;-85
2024/02/18 04:07:24;;;;;;;;;;;;;;;1.67;100.00;95860.75;10498981;28;19949;-82
2024/02/18 04:12:25;;;;;;;;;;;;;;;1.79;100.00;95875.13;10495232;28;19916;-81
2024/02/18 04:17:25;;;;;;;;;;;;;;;1.92;100.00;95868.31;10510213;28;19927;-82
2024/02/18 04:22:25;;;;;;;;;;;;;;;2.06;100.00;95870.06;10504027;28;20376;-82
2024/02/18 04:27:25;;;;;;;;;;;;;;;2.19;100.00;95872.00;10515312;28;19939;-84
2024/02/18 04:32:26;;;;;;;;;;;;;;;2.22;100.00;95867.13;10500126;28;20305;-83
2024/02/18 04:37:26;;;;;;;;;;;;;;;2.25;100.00;95859.78;10484662;28;19916;-84
2024/02/18 04:42:26;;;;;;;;;;;;;;;2.44;100.00;95859.13;10507779;28;19919;-85
2024/02/18 04:47:30;;;;;;;;;;;;;;;2.61;100.00;95845.53;10512906;28;19919;-86
2024/02/18 04:52:34;;;;;;;;;;;;;;;2.83;100.00;95849.78;10524845;28;20329;-85
2024/02/18 04:57:35;;;;;;;;;;;;;;;3.04;100.00;95858.63;10527594;28;19928;-87
2024/02/18 05:02:37;;;;;;;;;;;;;;;3.23;100.00;95857.88;10512184;28;19916;-84
2024/02/18 05:07:38;;;;;;;;;;;;;;;3.33;100.00;95856.69;10526444;28;19916;-84
2024/02/18 05:12:38;;;;;;;;;;;;;;;3.44;100.00;95855.31;10524944;28;19927;-83
2024/02/18 05:17:39;;;;;;;;;;;;;;;3.37;100.00;95858.75;10526097;28;19924;-86
2024/02/18 05:22:39;;;;;;;;;;;;;;;3.24;100.00;95872.81;10520766;28;20355;-86
2024/02/18 05:27:40;;;;;;;;;;;;;;;3.20;100.00;95876.06;10489007;28;19912;-84
2024/02/18 05:32:45;;;;;;;;;;;;;;;3.10;100.00;95875.59;10496006;28;20054;-85
2024/02/18 05:37:45;;;;;;;;;;;;;;;3.05;100.00;95887.63;10500752;28;19920;-84
2024/02/18 05:42:45;;;;;;;;;;;;;;;2.94;100.00;95893.50;10505851;28;19913;-85
2024/02/18 05:47:46;;;;;;;;;;;;;;;2.79;100.00;95893.66;10522285;28;19999;-81
2024/02/18 05:52:46;;;;;;;;;;;;;;;2.75;100.00;95889.75;10518348;28;19924;-80
2024/02/18 05:57:46;;;;;;;;;;;;;;;2.97;100.00;95894.97;10521317;28;20015;-83
2024/02/18 06:02:46;;;;;;;;;;;;;;;3.23;100.00;95904.91;10499810;28;19942;-77
2024/02/18 06:07:47;;;;;;;;;;;;;;;3.71;100.00;95909.34;10498015;28;20014;-75
2024/02/18 06:12:47;;;;;;;;;;;;;;;4.02;100.00;95911.47;10481194;28;20385;-80
2024/02/18 06:17:47;;;;;;;;;;;;;;;4.69;100.00;95927.44;10501261;28;20006;-83
2024/02/18 06:22:47;;;;;;;;;;;;;;;4.58;100.00;95926.22;10503130;28;19926;-76
2024/02/18 06:27:49;;;;;;;;;;;;;;;4.58;100.00;95928.06;10500151;28;20015;-80
2024/02/18 06:32:49;;;;;;;;;;;;;;;4.71;100.00;95925.38;10497941;28;19912;-81
2024/02/18 06:37:49;;;;;;;;;;;;;;;5.09;100.00;95935.38;10481094;28;19924;-81
2024/02/18 06:42:50;;;;;;;;;;;;;;;5.54;100.00;95941.78;10501075;28;19916;-82
2024/02/18 06:47:50;;;;;;;;;;;;;;;5.48;100.00;95935.44;10495624;28;19970;-80
2024/02/18 06:52:50;;;;;;;;;;;;;;;5.33;100.00;95938.38;10490217;28;20462;-79
2024/02/18 06:57:51;;;;;;;;;;;;;;;5.17;100.00;95942.31;10462360;28;19982;-76
2024/02/18 07:02:53;;;;;;;;;;;;;;;5.19;100.00;95934.09;10466392;28;19912;-77
2024/02/18 07:07:53;;;;;;;;;;;;;;;5.28;100.00;95930.19;10483602;28;19922;-77
2024/02/18 07:12:53;;;;;;;;;;;;;;;5.21;100.00;95940.06;10485620;28;19919;-76
2024/02/18 07:17:53;;;;;;;;;;;;;;;5.49;100.00;95934.41;10473774;28;19920;-78
2024/02/18 07:22:54;;;;;;;;;;;;;;;5.70;100.00;95937.84;10473516;28;19924;-76
2024/02/18 07:27:54;;;;;;;;;;;;;;;5.95;100.00;95936.03;10469123;28;19920;-75
2024/02/18 07:32:57;;;;;;;;;;;;;;;6.32;100.00;95932.75;10471021;28;20365;-79
2024/02/18 07:37:58;;;;;;;;;;;;;;;6.66;100.00;95926.13;10475295;28;20422;-80
2024/02/18 07:42:58;;;;;;;;;;;;;;;6.87;100.00;95934.78;10478567;28;19912;-78
2024/02/18 07:47:58;;;;;;;;;;;;;;;7.01;100.00;95936.28;10493275;28;20679;-76
2024/02/18 07:52:59;;;;;;;;;;;;;;;7.08;100.00;95932.75;10479979;28;19924;-79
2024/02/18 07:57:59;;;;;;;;;;;;;;;7.10;100.00;95930.66;10476219;28;20384;-73
2024/02/18 08:03:02;;;;;;;;;;;;;;;7.27;100.00;95925.53;10474554;28;19923;-82
2024/02/18 08:08:03;;;;;;;;;;;;;;;7.29;100.00;95918.94;10481813;28;19917;-80
2024/02/18 08:13:03;;;;;;;;;;;;;;;7.48;100.00;95922.44;10500463;28;19916;-78
2024/02/18 08:18:03;;;;;;;;;;;;;;;7.46;100.00;95929.84;10508510;28;20413;-80
2024/02/18 08:23:06;;;;;;;;;;;;;;;7.57;100.00;95925.59;10515182;28;20034;-81
2024/02/18 08:28:06;;;;;;;;;;;;;;;7.52;100.00;95933.47;10502100;28;19908;-80
2024/02/18 08:33:07;;;;;;;;;;;;;;;7.55;100.00;95927.72;10498568;28;20278;-81
2024/02/18 08:38:08;;;;;;;;;;;;;;;7.60;100.00;95943.06;10513313;28;19916;-79
2024/02/18 08:43:09;;;;;;;;;;;;;;;7.69;100.00;95933.72;10511948;28;20347;-80
2024/02/18 08:48:10;;;;;;;;;;;;;;;7.61;100.00;95934.81;10512229;28;19916;-80
2024/02/18 08:53:10;;;;;;;;;;;;;;;7.76;100.00;95938.97;10512997;28;20327;-82
2024/02/18 08:58:11;;;;;;;;;;;;;;;7.65;100.00;95930.66;10510452;28;19920;-81
2024/02/18 09:03:11;;;;;;;;;;;;;;;7.51;100.00;95937.22;10512109;28;20628;-80
2024/02/18 09:08:11;;;;;;;;;;;;;;;7.57;100.00;95941.66;10498332;28;19962;-81
2024/02/18 09:13:11;;;;;;;;;;;;;;;7.52;100.00;95953.03;10513559;28;19916;-82
2024/02/18 09:18:12;;;;;;;;;;;;;;;7.69;100.00;95950.56;10513890;28;20321;-82
2024/02/18 09:23:12;;;;;;;;;;;;;;;7.61;100.00;95952.75;10511524;28;20366;-81
2024/02/18 09:28:14;;;;;;;;;;;;;;;7.50;100.00;95957.78;10506833;28;20384;-80
2024/02/18 09:33:14;;;;;;;;;;;;;;;7.30;100.00;95954.53;10503883;28;20374;-79
2024/02/18 09:38:14;;;;;;;;;;;;;;;7.29;100.00;95961.72;10506403;28;19931;-81
2024/02/18 09:43:15;;;;;;;;;;;;;;;7.34;100.00;95958.41;10505994;28;20014;-81
2024/02/18 09:48:16;;;;;;;;;;;;;;;7.46;100.00;95958.47;10504639;28;19912;-80
2024/02/18 09:53:17;;;;;;;;;;;;;;;7.58;100.00;95950.53;10498919;28;19931;-81
2024/02/18 09:58:19;;;;;;;;;;;;;;;7.76;100.00;95949.66;10504422;28;19922;-81
2024/02/18 10:03:20;;;;;;;;;;;;;;;7.67;100.00;95941.97;10504608;28;19919;-80
2024/02/18 10:08:20;;;;;;;;;;;;;;;7.84;100.00;95933.28;10505791;28;20318;-81
2024/02/18 10:13:22;;;;;;;;;;;;;;;8.11;100.00;95914.22;10504289;28;19926;-79
2024/02/18 10:18:23;;;;;;;;;;;;;;;8.48;100.00;95909.53;10499315;28;19922;-80
2024/02/18 10:23:23;;;;;;;;;;;;;;;8.85;100.00;95919.28;10503348;28;19916;-80
2024/02/18 10:28:24;;;;;;;;;;;;;;;9.04;100.00;95907.38;10505651;28;19934;-81
2024/02/18 10:33:24;;;;;;;;;;;;;;;9.18;100.00;95897.22;10501412;28;19923;-79
2024/02/18 10:38:25;;;;;;;;;;;;;;;9.48;100.00;95885.47;10481606;28;19937;-81
2024/02/18 10:43:26;;;;;;;;;;;;;;;9.39;100.00;95882.38;10502634;28;20450;-81
2024/02/18 10:48:28;;;;;;;;;;;;;;;9.45;100.00;95869.88;10504141;28;19912;-79
2024/02/18 10:53:39;;;;;;;;;;;;;;;9.80;100.00;95862.75;10502246;28;19931;-81
2024/02/18 10:58:49;;;;;;;;;;;;;;;9.79;100.00;95864.59;10502683;28;19926;-80
2024/02/18 11:03:51;;;;;;;;;;;;;;;9.89;100.00;95864.81;10500693;28;20010;-81
2024/02/18 11:08:52;;;;;;;;;;;;;;;9.98;100.00;95864.41;10488371;28;19966;-81
2024/02/18 11:13:52;;;;;;;;;;;;;;;9.91;100.00;95867.25;10499622;28;20398;-80
2024/02/18 11:18:53;;;;;;;;;;;;;;;10.06;100.00;95864.00;10501608;28;19920;-80
2024/02/18 11:23:53;;;;;;;;;;;;;;;10.13;100.00;95855.78;10482850;28;20675;-80
2024/02/18 11:29:04;;;;;;;;;;;;;;;10.32;100.00;95856.41;10500403;28;19915;-82
2024/02/18 11:34:04;;;;;;;;;;;;;;;10.55;100.00;95847.41;10498600;28;19919;-81
2024/02/18 11:39:07;;;;;;;;;;;;;;;10.49;100.00;95845.66;10499587;28;19923;-80
2024/02/18 11:44:09;;;;;;;;;;;;;;;10.50;100.00;95844.63;10501709;28;19966;-80
2024/02/18 11:49:11;;;;;;;;;;;;;;;10.39;100.00;95846.31;10491764;28;19951;-82
2024/02/18 11:54:11;;;;;;;;;;;;;;;10.14;100.00;95844.81;10488187;28;19924;-81
2024/02/18 11:59:12;;;;;;;;;;;;;;;10.04;100.00;95834.69;10497121;28;19916;-80
2024/02/18 12:04:12;;;;;;;;;;;;;;;10.17;100.00;95828.22;10481060;28;19916;-80
2024/02/18 12:09:16;;;;;;;;;;;;;;;10.67;100.00;95825.78;10499773;28;20003;-81
2024/02/18 12:14:21;;;;;;;;;;;;;;;10.97;100.00;95820.03;10492730;28;20730;-80
2024/02/18 12:19:21;;;;;;;;;;;;;;;10.73;100.00;95830.16;10499437;28;19916;-81
2024/02/18 12:24:22;;;;;;;;;;;;;;;10.77;100.00;95828.63;10499820;28;20333;-80
2024/02/18 12:29:22;;;;;;;;;;;;;;;10.62;100.00;95821.16;10482342;28;19938;-75
2024/02/18 12:34:22;;;;;;;;;;;;;;;10.62;100.00;95814.94;10492218;28;20430;-76
2024/02/18 12:39:23;;;;;;;;;;;;;;;10.49;100.00;95811.53;10491554;28;19960;-75
2024/02/18 12:44:24;;;;;;;;;;;;;;;10.40;100.00;95816.50;10491317;28;19918;-76
2024/02/18 12:49:28;;;;;;;;;;;;;;;10.02;100.00;95806.44;10484510;28;20032;-74
2024/02/18 12:54:28;;;;;;;;;;;;;;;9.87;100.00;95820.44;10487935;28;19931;-79
2024/02/18 12:59:29;;;;;;;;;;;;;;;9.62;100.00;95821.59;10494498;28;19927;-74
2024/02/18 13:04:30;;;;;;;;;;;;;;;9.44;100.00;95809.19;10498327;28;19970;-75
2024/02/18 13:09:31;;;;;;;;;;;;;;;9.64;100.00;95805.25;10497180;28;19958;-75
2024/02/18 13:14:31;;;;;;;;;;;;;;;9.94;100.00;95802.31;10499762;28;19998;-77
2024/02/18 13:19:32;;;;;;;;;;;;;;;9.64;100.00;95816.84;10494630;28;19920;-78
2024/02/18 13:24:32;;;;;;;;;;;;;;;9.07;100.00;95818.41;10497554;28;19912;-79
2024/02/18 13:29:33;;;;;;;;;;;;;;;8.98;100.00;95819.81;10495525;28;19916;-78
2024/02/18 13:34:33;;;;;;;;;;;;;;;9.43;100.00;95817.47;10493849;28;19960;-78
2024/02/18 13:39:34;;;;;;;;;;;;;;;9.53;100.00;95818.50;10493058;28;19923;-78
2024/02/18 13:44:34;;;;;;;;;;;;;;;9.79;100.00;95818.16;10495965;28;20286;-77
2024/02/18 13:49:34;;;;;;;;;;;;;;;9.82;100.00;95813.09;10476972;28;19922;-79
2024/02/18 13:54:35;;;;;;;;;;;;;;;9.35;100.00;95813.31;10491998;28;20383;-78
2024/02/18 13:59:35;;;;;;;;;;;;;;;9.20;100.00;95816.50;10501628;28;20302;-78
2024/02/18 14:04:35;;;;;;;;;;;;;;;9.22;100.00;95812.53;10501979;28;19919;-77
2024/02/18 14:09:35;;;;;;;;;;;;;;;9.51;100.00;95817.09;10465697;28;19920;-77
2024/02/18 14:14:36;;;;;;;;;;;;;;;9.51;100.00;95814.44;10499200;28;19924;-76
2024/02/18 14:19:36;;;;;;;;;;;;;;;9.61;100.00;95809.22;10490787;28;19982;-76
2024/02/18 14:24:36;;;;;;;;;;;;;;;9.50;100.00;95802.06;10494919;28;20521;-79
2024/02/18 14:29:36;;;;;;;;;;;;;;;9.63;100.00;95811.69;10476249;28;20315;-76
2024/02/18 14:34:37;;;;;;;;;;;;;;;9.39;100.00;95801.88;10491852;28;19920;-77
2024/02/18 14:39:37;;;;;;;;;;;;;;;8.96;100.00;95800.47;10493725;28;20046;-78
2024/02/18 14:44:37;;;;;;;;;;;;;;;9.06;100.00;95799.88;10474640;28;19920;-77
2024/02/18 14:49:38;;;;;;;;;;;;;;;9.35;100.00;95806.09;10487445;28;19912;-77
2024/02/18 14:54:38;;;;;;;;;;;;;;;9.48;100.00;95799.63;10484722;28;19924;-78
2024/02/18 14:59:39;;;;;;;;;;;;;;;9.57;100.00;95806.22;10487820;28;20387;-77
2024/02/18 15:04:40;;;;;;;;;;;;;;;9.21;100.00;95810.91;10496631;28;20006;-77
2024/02/18 15:09:40;;;;;;;;;;;;;;;8.98;100.00;95808.28;10479768;28;20284;-77
2024/02/18 15:14:41;;;;;;;;;;;;;;;8.85;100.00;95809.34;10500121;28;19920;-77
2024/02/18 15:19:41;;;;;;;;;;;;;;;8.84;100.00;95815.75;10490506;28;20413;-77
2024/02/18 15:24:42;;;;;;;;;;;;;;;8.88;100.00;95809.69;10488862;28;19988;-76
2024/02/18 15:29:42;;;;;;;;;;;;;;;8.94;100.00;95813.28;10489650;28;19916;-75
2024/02/18 15:34:45;;;;;;;;;;;;;;;8.95;100.00;95816.81;10489232;28;19916;-77
2024/02/18 15:39:45;;;;;;;;;;;;;;;8.90;100.00;95820.16;10486705;28;19930;-74
2024/02/18 15:44:45;;;;;;;;;;;;;;;8.89;100.00;95815.88;10485976;28;19940;-76
2024/02/18 15:49:48;;;;;;;;;;;;;;;8.82;100.00;95825.88;10484731;28;20331;-78
2024/02/18 15:54:48;;;;;;;;;;;;;;;8.78;100.00;95825.56;10488084;28;19923;-76
2024/02/18 15:59:48;;;;;;;;;;;;;;;8.82;100.00;95824.03;10476841;28;20330;-76
2024/02/18 16:04:50;;;;;;;;;;;;;;;8.78;100.00;95819.41;10484640;28;19920;-77
2024/02/18 16:09:50;;;;;;;;;;;;;;;8.50;100.00;95827.09;10468029;28;19920;-76
2024/02/18 16:14:51;;;;;;;;;;;;;;;8.31;100.00;95822.84;10485324;28;20395;-75
2024/02/18 16:19:51;;;;;;;;;;;;;;;8.34;100.00;95833.94;10453997;28;19920;-76
2024/02/18 16:24:51;;;;;;;;;;;;;;;8.12;100.00;95824.78;10494198;28;20270;-78
2024/02/18 16:29:51;;;;;;;;;;;;;;;8.04;100.00;95818.72;10499863;28;19920;-76
2024/02/18 16:34:52;;;;;;;;;;;;;;;7.90;100.00;95827.19;10494365;28;20310;-76
2024/02/18 16:39:52;;;;;;;;;;;;;;;8.00;100.00;95828.28;10505020;28;20370;-77
2024/02/18 16:44:53;;;;;;;;;;;;;;;7.95;100.00;95830.81;10511221;28;19920;-77
2024/02/18 16:49:53;;;;;;;;;;;;;;;7.97;100.00;95820.69;10511249;28;19924;-78
2024/02/18 16:54:54;;;;;;;;;;;;;;;7.96;100.00;95832.44;10481144;28;19935;-78
2024/02/18 16:59:54;;;;;;;;;;;;;;;7.97;100.00;95831.41;10494000;28;20315;-78
2024/02/18 17:04:54;;;;;;;;;;;;;;;8.13;100.00;95829.91;10486354;28;20373;-80
2024/02/18 17:09:54;;;;;;;;;;;;;;;8.09;100.00;95820.72;10477123;28;19920;-76
2024/02/18 17:14:55;;;;;;;;;;;;;;;7.99;100.00;95826.63;10485370;28;19916;-76
2024/02/18 17:19:55;;;;;;;;;;;;;;;7.85;100.00;95825.22;10477286;28;20325;-77
2024/02/18 17:24:55;;;;;;;;;;;;;;;8.07;100.00;95825.50;10482810;28;19973;-78
2024/02/18 17:29:56;;;;;;;;;;;;;;;8.22;100.00;95825.06;10482244;28;20374;-77
2024/02/18 17:34:56;;;;;;;;;;;;;;;8.34;100.00;95823.22;10463779;28;20598;-76
2024/02/18 17:39:57;;;;;;;;;;;;;;;8.20;100.00;95817.25;10482468;28;19924;-78
2024/02/18 17:45:00;;;;;;;;;;;;;;;8.46;100.00;95825.13;10466534;28;19924;-78
2024/02/18 17:56:08;;;;;;;;;;;;;;;8.25;100.00;95813.88;10383283;28;19931;-77
2024/02/18 18:01:19;;;;;;;;;;;;;;;;;;;;;
2024/02/18 18:06:22;;;;;;;;;;;;;;;7.81;100.00;95803.44;10435299;28;19913;-75
2024/02/18 18:11:42;;;;;;;;;;;;;;;;;;;;;
2024/02/18 18:17:06;;;;;;;;;;;;;;;7.89;100.00;95809.53;10442683;28;19917;-77
2024/02/18 18:22:03;;;;;;;;;;;;;;;7.99;100.00;95799.84;10440144;28;19999;-78
2024/02/18 18:27:04;;;;;;;;;;;;;;;8.08;100.00;95803.03;10442524;28;19916;-77
2024/02/18 18:32:04;;;;;;;;;;;;;;;7.92;100.00;95799.16;10440118;28;19959;-77
2024/02/18 18:37:05;;;;;;;;;;;;;;;7.91;100.00;95800.22;10445480;28;20443;-77
2024/02/18 18:42:06;;;;;;;;;;;;;;;7.94;100.00;95797.06;10440843;28;19920;-78
2024/02/18 18:47:06;;;;;;;;;;;;;;;7.79;100.00;95799.38;10438888;28;20653;-76
2024/02/18 18:52:06;;;;;;;;;;;;;;;7.75;100.00;95798.19;10462487;28;20344;-78
2024/02/18 18:57:07;;;;;;;;;;;;;;;7.91;100.00;95796.72;10483881;28;19931;-79
2024/02/18 19:02:07;;;;;;;;;;;;;;;8.10;100.00;95792.91;10483386;28;20313;-76
2024/02/18 19:07:07;;;;;;;;;;;;;;;8.10;100.00;95795.56;10486735;28;20402;-78
2024/02/18 19:12:08;;;;;;;;;;;;;;;8.09;100.00;95793.13;10489197;28;20741;-77
2024/02/18 19:17:08;;;;;;;;;;;;;;;8.08;100.00;95794.16;10473220;28;19931;-78
2024/02/18 19:22:10;;;;;;;;;;;;;;;8.09;100.00;95793.94;10471267;28;19912;-82
2024/02/18 19:27:19;;;;;;;;;;;;;;;8.26;100.00;95802.13;10482790;28;19912;-80
2024/02/18 19:32:20;;;;;;;;;;;;;;;8.48;100.00;95801.56;10489117;28;20389;-77
2024/02/18 19:37:20;;;;;;;;;;;;;;;8.45;100.00;95805.53;10491669;28;19978;-78
2024/02/18 19:42:20;;;;;;;;;;;;;;;8.59;100.00;95798.06;10464986;28;19981;-78
2024/02/18 19:47:21;;;;;;;;;;;;;;;8.24;100.00;95804.22;10490326;28;19916;-77
2024/02/18 19:52:21;;;;;;;;;;;;;;;8.16;100.00;95799.19;10491722;28;20038;-79
2024/02/18 19:57:22;;;;;;;;;;;;;;;8.16;100.00;95793.84;10497569;28;20003;-78
2024/02/18 20:02:22;;;;;;;;;;;;;;;8.17;100.00;95801.63;10492242;28;19920;-79
2024/02/18 20:07:23;;;;;;;;;;;;;;;8.09;100.00;95793.13;10499914;28;19978;-79
2024/02/18 20:12:24;;;;;;;;;;;;;;;7.97;100.00;95787.78;10483323;28;19923;-79
2024/02/18 20:17:24;;;;;;;;;;;;;;;7.94;100.00;95789.03;10502349;28;19924;-80
2024/02/18 20:22:24;;;;;;;;;;;;;;;8.03;100.00;95786.84;10484367;28;19920;-81
2024/02/18 20:27:25;;;;;;;;;;;;;;;7.90;100.00;95782.53;10503798;28;19912;-81
2024/02/18 20:32:27;;;;;;;;;;;;;;;7.68;100.00;95785.72;10501075;28;19920;-80
2024/02/18 20:37:28;;;;;;;;;;;;;;;7.70;100.00;95782.81;10478233;28;20713;-80
2024/02/18 20:42:29;;;;;;;;;;;;;;;7.38;100.00;95782.25;10504350;28;20263;-81
2024/02/18 20:47:29;;;;;;;;;;;;;;;7.51;100.00;95782.88;10490520;28;19912;-80
2024/02/18 20:52:29;;;;;;;;;;;;;;;7.50;100.00;95775.88;10483069;28;20050;-78
2024/02/18 20:57:32;;;;;;;;;;;;;;;7.39;100.00;95768.66;10476246;28;19920;-82
2024/02/18 21:02:33;;;;;;;;;;;;;;;7.46;100.00;95774.72;10485931;28;19920;-78
2024/02/18 21:07:34;;;;;;;;;;;;;;;7.47;100.00;95770.19;10472380;28;20295;-86
2024/02/18 21:12:34;;;;;;;;;;;;;;;7.59;100.00;95762.19;10493145;28;19912;-76
2024/02/18 21:17:34;;;;;;;;;;;;;;;7.43;100.00;95758.31;10471978;28;19920;-82
2024/02/18 21:22:34;;;;;;;;;;;;;;;7.30;100.00;95754.78;10503664;28;19944;-78
2024/02/18 21:27:35;;;;;;;;;;;;;;;7.28;100.00;95751.50;10502309;28;19924;-78
2024/02/18 21:32:35;;;;;;;;;;;;;;;7.39;100.00;95749.94;10498269;28;20362;-76
2024/02/18 21:37:35;;;;;;;;;;;;;;;7.37;100.00;95752.03;10497629;28;19931;-78
2024/02/18 21:42:36;;;;;;;;;;;;;;;7.28;100.00;95751.50;10500636;28;20375;-79
2024/02/18 21:47:36;;;;;;;;;;;;;;;6.92;100.00;95747.06;10504159;28;19931;-78
2024/02/18 21:52:36;;;;;;;;;;;;;;;6.98;100.00;95746.16;10502872;28;20433;-77
2024/02/18 21:57:36;;;;;;;;;;;;;;;7.11;100.00;95743.31;10507292;28;19982;-78
2024/02/18 22:02:37;;;;;;;;;;;;;;;7.17;100.00;95738.91;10507367;28;19912;-76
2024/02/18 22:07:37;;;;;;;;;;;;;;;7.14;100.00;95736.69;10505975;28;19970;-77
2024/02/18 22:12:37;;;;;;;;;;;;;;;7.16;100.00;95722.06;10511200;28;19933;-78
2024/02/18 22:17:37;;;;;;;;;;;;;;;7.01;100.00;95738.50;10511203;28;19931;-78
2024/02/18 22:22:38;;;;;;;;;;;;;;;6.98;100.00;95736.28;10511603;28;19912;-78
2024/02/18 22:27:38;;;;;;;;;;;;;;;7.10;100.00;95724.81;10511093;28;19916;-77
2024/02/18 22:32:38;;;;;;;;;;;;;;;7.09;100.00;95721.34;10510637;28;19912;-77
2024/02/18 22:37:38;;;;;;;;;;;;;;;6.84;100.00;95719.59;10510789;28;20025;-77
2024/02/18 22:42:39;;;;;;;;;;;;;;;6.88;100.00;95717.31;10510498;28;20389;-78
2024/02/18 22:47:39;;;;;;;;;;;;;;;6.89;100.00;95721.59;10510439;28;19920;-77
2024/02/18 22:52:39;;;;;;;;;;;;;;;6.86;100.00;95722.06;10510598;28;20022;-78
2024/02/18 22:57:39;;;;;;;;;;;;;;;6.80;100.00;95723.78;10509880;28;20359;-77
2024/02/18 23:02:40;;;;;;;;;;;;;;;6.68;100.00;95714.88;10509539;28;19955;-77
2024/02/18 23:07:40;;;;;;;;;;;;;;;6.65;100.00;95718.81;10509918;28;19973;-76
2024/02/18 23:12:41;;;;;;;;;;;;;;;6.47;100.00;95718.81;10506962;28;19912;-77
2024/02/18 23:17:41;;;;;;;;;;;;;;;6.38;100.00;95715.63;10507644;28;19920;-77
2024/02/18 23:22:41;;;;;;;;;;;;;;;6.22;100.00;95716.22;10508409;28;20378;-77
2024/02/18 23:27:41;;;;;;;;;;;;;;;6.21;100.00;95711.91;10476372;28;19959;-77
2024/02/18 23:32:42;;;;;;;;;;;;;;;6.10;100.00;95705.47;10490281;28;20351;-76
2024/02/18 23:37:42;;;;;;;;;;;;;;;5.98;100.00;95708.84;10506681;28;20391;-77
2024/02/18 23:42:42;;;;;;;;;;;;;;;5.87;100.00;95704.19;10507304;28;20292;-78
2024/02/18 23:47:43;;;;;;;;;;;;;;;5.83;100.00;95711.00;10495402;28;19961;-78
2024/02/18 23:52:43;;;;;;;;;;;;;;;5.69;100.00;95707.63;10476606;28;19925;-77
2024/02/18 23:57:45;;;;;;;;;;;;;;;5.53;100.00;95709.00;10478501;28;19920;-76
